createdAt,value
2023-05-16T00:04:23.072Z,7.25
2023-05-16T00:09:24.952Z,7.32
2023-05-16T00:14:26.961Z,8.23
2023-05-16T00:19:30.245Z,8.65
2023-05-16T00:24:34.395Z,5.50
2023-05-16T00:29:36.209Z,7.25
2023-05-16T00:34:38.012Z,7.95
2023-05-16T00:39:43.020Z,9.73
2023-05-16T00:44:45.086Z,7.18
2023-05-16T00:49:47.440Z,7.75
2023-05-16T00:54:52.428Z,7.20
2023-05-16T00:59:55.094Z,10.18
2023-05-16T01:04:59.606Z,6.30
2023-05-16T01:10:05.046Z,9.40
2023-05-16T01:15:12.804Z,8.45
2023-05-16T01:20:22.326Z,6.60
2023-05-16T01:25:52.504Z,9.68
2023-05-16T01:30:54.631Z,6.97
2023-05-16T01:36:22.762Z,11.95
2023-05-16T01:41:29.326Z,9.02
2023-05-16T01:46:37.503Z,10.95
2023-05-16T01:51:41.747Z,8.13
2023-05-16T01:56:55.848Z,8.70
2023-05-16T02:01:58.242Z,7.28
2023-05-16T02:07:01.998Z,8.13
2023-05-16T02:12:04.664Z,11.32
2023-05-16T02:17:06.615Z,11.05
2023-05-16T02:22:08.479Z,8.68
2023-05-16T02:27:10.696Z,9.07
2023-05-16T02:32:12.423Z,9.90
2023-05-16T02:37:14.718Z,13.98
2023-05-16T02:42:16.653Z,8.48
2023-05-16T02:47:19.765Z,8.93
2023-05-16T02:52:21.606Z,9.68
2023-05-16T02:57:23.399Z,9.00
2023-05-16T03:02:25.686Z,10.88
2023-05-16T03:07:27.827Z,9.93
2023-05-16T03:12:36.639Z,10.30
2023-05-16T03:17:39.837Z,12.10
2023-05-16T03:22:41.917Z,13.95
2023-05-16T03:27:45.751Z,12.07
2023-05-16T03:32:47.614Z,12.45
2023-05-16T03:37:54.915Z,10.95
2023-05-16T03:42:56.866Z,13.60
2023-05-16T03:47:59.022Z,9.23
2023-05-16T03:53:00.995Z,9.90
2023-05-16T03:58:02.879Z,13.43
2023-05-16T04:03:05.094Z,10.07
2023-05-16T04:08:07.404Z,12.93
2023-05-16T04:13:10.312Z,11.70
2023-05-16T04:18:13.520Z,9.07
2023-05-16T04:23:15.602Z,10.20
2023-05-16T04:28:18.206Z,12.02
2023-05-16T04:33:20.263Z,9.07
2023-05-16T04:38:22.718Z,9.95
2023-05-16T04:43:24.794Z,10.50
2023-05-16T04:48:26.818Z,12.10
2023-05-16T04:53:33.387Z,10.73
2023-05-16T04:58:35.304Z,10.45
2023-05-16T05:03:37.641Z,8.15
2023-05-16T05:08:41.532Z,12.00
2023-05-16T05:13:43.597Z,12.55
2023-05-16T05:18:47.817Z,12.88
2023-05-16T05:23:50.123Z,11.85
2023-05-16T05:29:04.546Z,11.98
2023-05-16T05:34:10.075Z,10.52
2023-05-16T05:39:12.064Z,11.80
2023-05-16T05:44:14.009Z,12.88
2023-05-16T05:49:16.195Z,11.75
2023-05-16T05:54:22.034Z,12.75
2023-05-16T05:59:23.898Z,13.65
2023-05-16T06:04:25.893Z,10.63
2023-05-16T06:09:27.837Z,15.07
2023-05-16T06:14:29.856Z,13.20
2023-05-16T06:19:31.729Z,16.85
2023-05-16T06:24:34.149Z,16.20
2023-05-16T06:29:36.776Z,13.70
2023-05-16T06:34:38.684Z,15.98
2023-05-16T06:39:40.524Z,18.23
2023-05-16T06:44:42.414Z,24.30
2023-05-16T06:49:44.319Z,15.65
2023-05-16T06:54:46.205Z,18.90
2023-05-16T06:59:48.075Z,20.55
2023-05-16T07:04:49.914Z,26.35
2023-05-16T07:09:51.838Z,21.20
2023-05-16T07:14:53.980Z,26.13
2023-05-16T07:19:56.093Z,24.33
2023-05-16T07:25:01.401Z,25.50
2023-05-16T07:30:04.326Z,22.75
2023-05-16T07:35:08.162Z,16.38
2023-05-16T07:40:11.969Z,18.60
2023-05-16T07:45:14.147Z,16.52
2023-05-16T07:50:16.675Z,19.02
2023-05-16T07:55:19.940Z,17.83
2023-05-16T08:00:22.312Z,10.02
2023-05-16T08:05:24.775Z,10.80
2023-05-16T08:10:26.831Z,10.45
2023-05-16T08:15:30.926Z,12.60
2023-05-16T08:20:32.929Z,8.63
2023-05-16T08:25:34.894Z,7.93
2023-05-16T08:30:36.927Z,8.55
2023-05-16T08:35:44.095Z,16.30
2023-05-16T08:40:46.113Z,9.03
2023-05-16T08:45:48.033Z,11.10
2023-05-16T08:50:50.381Z,10.82
2023-05-16T08:55:53.719Z,12.25
2023-05-16T09:00:56.670Z,9.65
2023-05-16T09:06:02.180Z,10.40
2023-05-16T09:11:04.654Z,14.68
2023-05-16T09:16:15.091Z,16.88
2023-05-16T09:21:17.249Z,9.30
2023-05-16T09:26:19.662Z,10.23
2023-05-16T09:31:27.312Z,11.35
2023-05-16T09:36:29.286Z,8.90
2023-05-16T09:41:35.703Z,8.23
2023-05-16T09:46:38.696Z,9.27
2023-05-16T09:51:43.824Z,7.70
2023-05-16T09:56:50.953Z,6.82
2023-05-16T10:01:53.811Z,8.77
2023-05-16T10:06:58.898Z,7.90
2023-05-16T10:12:06.697Z,7.97
2023-05-16T10:17:11.537Z,10.68
2023-05-16T10:22:14.595Z,7.20
2023-05-16T10:27:19.310Z,7.63
2023-05-16T10:32:24.449Z,4.80
2023-05-16T10:37:27.728Z,17.88
2023-05-16T10:42:32.474Z,6.22
2023-05-16T10:47:34.823Z,8.00
2023-05-16T10:52:36.749Z,6.88
2023-05-16T10:57:39.801Z,5.55
2023-05-16T11:02:42.266Z,6.43
2023-05-16T11:08:05.183Z,7.40
2023-05-16T11:13:10.128Z,6.75
2023-05-16T11:18:17.092Z,7.35
2023-05-16T11:23:24.353Z,9.50
2023-05-16T11:28:27.702Z,12.07
2023-05-16T11:33:35.804Z,7.75
2023-05-16T11:38:38.063Z,8.43
2023-05-16T11:43:45.516Z,7.13
2023-05-16T11:48:48.124Z,9.48
2023-05-16T11:53:51.583Z,7.75
2023-05-16T11:58:53.951Z,6.80
2023-05-16T12:04:00.481Z,6.00
2023-05-16T12:09:10.034Z,3.90
2023-05-16T12:14:13.533Z,7.20
2023-05-16T12:19:16.058Z,6.57
2023-05-16T12:24:18.249Z,6.00
2023-05-16T12:29:21.795Z,6.32
2023-05-16T12:34:23.940Z,5.03
2023-05-16T12:39:26.390Z,5.18
2023-05-16T12:44:30.602Z,5.25
2023-05-16T12:49:33.524Z,6.00
2023-05-16T12:54:35.543Z,4.32
2023-05-16T12:59:37.682Z,4.63
2023-05-16T13:04:39.761Z,3.05
2023-05-16T13:09:41.934Z,5.18
2023-05-16T13:14:45.695Z,4.28
2023-05-16T13:19:48.919Z,5.05
2023-05-16T13:24:51.731Z,4.15
2023-05-16T13:29:53.656Z,4.55
2023-05-16T13:34:56.035Z,4.97
2023-05-16T13:39:57.988Z,7.72
2023-05-16T13:44:59.857Z,4.82
2023-05-16T13:50:09.488Z,4.90
2023-05-16T13:55:11.542Z,5.25
2023-05-16T14:05:19.210Z,9.02
2023-05-16T14:10:21.538Z,2.75
2023-05-16T14:15:23.403Z,3.03
2023-05-16T14:20:25.450Z,4.03
2023-05-16T14:25:27.638Z,4.70
2023-05-16T14:30:30.182Z,3.65
2023-05-16T14:35:33.245Z,8.32
2023-05-16T14:40:35.189Z,3.25
2023-05-16T14:45:38.323Z,3.50
2023-05-16T14:50:40.182Z,7.07
2023-05-16T14:55:42.217Z,3.08
2023-05-16T15:00:44.281Z,6.38
2023-05-16T15:05:46.343Z,3.28
2023-05-16T15:10:48.318Z,9.88
2023-05-16T15:15:50.713Z,8.70
2023-05-16T15:20:53.346Z,5.57
2023-05-16T15:25:55.320Z,8.02
2023-05-16T15:30:57.193Z,5.00
2023-05-16T15:35:59.143Z,6.35
2023-05-16T15:41:15.871Z,6.07
2023-05-16T15:46:24.356Z,6.82
2023-05-16T15:51:26.239Z,4.03
2023-05-16T15:56:28.134Z,16.35
2023-05-16T16:01:30.006Z,4.88
2023-05-16T16:06:32.047Z,3.65
2023-05-16T16:11:33.926Z,4.60
2023-05-16T16:16:37.476Z,3.47
2023-05-16T16:21:39.355Z,6.80
2023-05-16T16:26:42.636Z,7.68
2023-05-16T16:31:44.684Z,6.88
2023-05-16T16:36:46.822Z,7.90
2023-05-16T16:41:48.958Z,4.85
2023-05-16T16:46:51.776Z,3.35
2023-05-16T16:51:56.038Z,12.25
2023-05-16T16:57:01.565Z,3.67
2023-05-16T17:02:03.465Z,6.18
2023-05-16T17:07:05.664Z,5.18
2023-05-16T17:12:15.179Z,8.48
2023-05-16T17:17:18.819Z,5.13
2023-05-16T17:22:24.127Z,3.80
2023-05-16T17:27:26.116Z,4.65
2023-05-16T17:32:29.380Z,7.95
2023-05-16T17:37:31.311Z,5.60
2023-05-16T17:42:33.206Z,3.97
2023-05-16T17:47:35.427Z,3.00
2023-05-16T17:52:39.926Z,3.53
2023-05-16T17:57:42.654Z,8.93
2023-05-16T18:02:44.722Z,4.40
2023-05-16T18:07:46.767Z,4.78
2023-05-16T18:12:49.242Z,4.63
2023-05-16T18:17:51.277Z,7.18
2023-05-16T18:22:53.198Z,6.03
2023-05-16T18:27:55.080Z,4.50
2023-05-16T18:32:57.215Z,8.38
2023-05-16T18:37:59.417Z,4.28
2023-05-16T18:43:01.421Z,2.42
2023-05-16T18:48:03.572Z,5.03
2023-05-16T18:53:05.555Z,1.42
2023-05-16T18:58:07.456Z,4.90
2023-05-16T19:03:10.083Z,6.43
2023-05-16T19:08:12.095Z,10.45
2023-05-16T19:13:14.059Z,2.22
2023-05-16T19:18:17.842Z,3.45
2023-05-16T19:23:19.889Z,6.85
2023-05-16T19:28:21.776Z,3.03
2023-05-16T19:33:24.010Z,5.22
2023-05-16T19:38:26.893Z,5.75
2023-05-16T19:43:29.666Z,3.17
2023-05-16T19:48:32.039Z,2.63
2023-05-16T19:53:34.210Z,5.70
2023-05-16T19:58:36.096Z,3.08
2023-05-16T20:03:38.146Z,2.22
2023-05-16T20:08:40.197Z,2.90
2023-05-16T20:13:41.964Z,5.82
2023-05-16T20:18:44.628Z,3.17
2023-05-16T20:23:46.600Z,2.17
2023-05-16T20:28:48.411Z,2.17
2023-05-16T20:33:50.333Z,5.75
2023-05-16T20:38:52.325Z,5.65
2023-05-16T20:43:54.527Z,4.13
2023-05-16T20:48:56.460Z,1.55
2023-05-16T20:53:58.345Z,4.00
2023-05-16T20:59:04.241Z,0.73
2023-05-16T21:04:06.442Z,3.92
2023-05-16T21:09:08.322Z,1.77
2023-05-16T21:14:10.275Z,5.82
2023-05-16T21:19:12.272Z,3.78
2023-05-16T21:24:14.205Z,7.40
2023-05-16T21:29:16.049Z,3.38
2023-05-16T21:34:18.034Z,1.48
2023-05-16T21:39:20.220Z,4.07
2023-05-16T21:44:25.233Z,2.50
2023-05-16T21:49:27.223Z,1.10
2023-05-16T21:54:29.134Z,1.02
2023-05-16T21:59:31.016Z,2.70
2023-05-16T22:04:32.960Z,3.30
2023-05-16T22:09:34.823Z,1.73
2023-05-16T22:14:36.842Z,7.57
2023-05-16T22:19:38.850Z,1.67
2023-05-16T22:24:41.162Z,3.75
2023-05-16T22:29:42.942Z,0.80
2023-05-16T22:34:44.879Z,2.53
2023-05-16T22:39:46.928Z,2.75
2023-05-16T22:44:48.875Z,2.15
2023-05-16T22:49:51.174Z,5.88
2023-05-16T22:54:53.012Z,3.00
2023-05-16T22:59:56.072Z,3.05
2023-05-16T23:04:58.493Z,3.55
2023-05-16T23:10:00.617Z,3.70
2023-05-16T23:15:02.568Z,18.15
2023-05-16T23:20:06.100Z,4.30
2023-05-16T23:25:08.914Z,2.25
2023-05-16T23:30:11.450Z,4.60
2023-05-16T23:35:13.591Z,5.57
2023-05-16T23:40:15.407Z,1.90
2023-05-16T23:45:17.288Z,3.22
2023-05-16T23:50:20.958Z,6.72
2023-05-16T23:55:26.071Z,3.42
